Time;durP1;ratioP1;P1;durP2;ratioP2;P2;SDS_P1;SDS_P2;PMS_P1;PMS_P2;Temp;Humidity;BMP_temperature;BMP_pressure;BME280_temperature;BME280_humidity;BME280_pressure;Samples;Min_cycle;Max_cycle;Signal;HPM_P1;HPM_P2
2023/12/13 00:01:40;;;;;;;2.40;2.00;;;;;;;13.66;51.62;97325.27;105641;1260;66422;-48
2023/12/13 00:04:08;;;;;;;3.10;2.20;;;;;;;13.66;51.46;97319.34;105520;1258;72627;-48
2023/12/13 00:06:35;;;;;;;2.50;2.10;;;;;;;13.66;51.50;97318.95;105551;1260;61279;-48
2023/12/13 00:09:03;;;;;;;2.40;2.20;;;;;;;13.65;51.66;97321.09;105513;1257;61449;-48
2023/12/13 00:11:30;;;;;;;1.90;1.60;;;;;;;13.66;51.61;97320.83;105588;1260;74527;-48
2023/12/13 00:13:57;;;;;;;2.40;2.20;;;;;;;13.66;51.48;97323.95;105489;1257;66048;-47
2023/12/13 00:16:24;;;;;;;2.30;2.10;;;;;;;13.66;51.56;97324.02;105537;1256;72652;-47
2023/12/13 00:18:52;;;;;;;2.20;1.90;;;;;;;13.65;51.61;97327.10;105624;1257;61346;-47
2023/12/13 00:21:19;;;;;;;2.20;2.00;;;;;;;13.66;51.62;97327.12;105651;1258;61216;-47
2023/12/13 00:23:46;;;;;;;2.50;2.30;;;;;;;13.66;51.49;97328.89;105614;1260;74418;-47
2023/12/13 00:26:17;;;;;;;2.10;1.90;;;;;;;13.67;51.48;97323.92;105533;1257;65790;-47
2023/12/13 00:28:44;;;;;;;2.90;2.10;;;;;;;13.67;51.52;97328.23;105798;1260;72321;-48
2023/12/13 00:31:12;;;;;;;3.70;2.20;;;;;;;13.67;51.45;97328.23;105840;1256;61202;-47
2023/12/13 00:33:39;;;;;;;2.40;2.20;;;;;;;13.67;51.56;97329.47;105508;1260;61267;-47
2023/12/13 00:36:07;;;;;;;3.10;2.00;;;;;;;13.67;51.36;97334.85;105239;1259;74418;-49
2023/12/13 00:38:34;;;;;;;3.00;2.30;;;;;;;13.67;51.51;97333.55;105050;1260;65498;-49
2023/12/13 00:41:01;;;;;;;2.30;2.10;;;;;;;13.67;51.60;97342.23;105127;1256;72600;-49
2023/12/13 00:43:29;;;;;;;2.40;2.20;;;;;;;13.67;51.52;97341.79;105435;1260;61238;-49
2023/12/13 00:45:56;;;;;;;2.10;1.90;;;;;;;13.68;51.47;97343.33;105354;1258;61317;-49
2023/12/13 00:48:24;;;;;;;2.40;2.10;;;;;;;13.67;51.61;97342.77;105172;1257;74566;-47
2023/12/13 00:50:51;;;;;;;2.10;1.90;;;;;;;13.67;51.49;97338.46;105366;1260;65607;-49
2023/12/13 00:53:18;;;;;;;2.40;2.00;;;;;;;13.67;51.49;97337.64;105749;1260;72595;-48
2023/12/13 00:55:46;;;;;;;3.30;1.90;;;;;;;13.68;51.46;97334.95;105357;1260;61257;-48
2023/12/13 00:58:13;;;;;;;2.30;2.10;;;;;;;13.68;51.39;97333.95;105148;1257;61368;-47
2023/12/13 01:00:40;;;;;;;2.10;1.80;;;;;;;13.68;51.49;97329.11;105178;1256;74504;-49
2023/12/13 01:03:07;;;;;;;3.20;2.00;;;;;;;13.69;51.61;97327.98;105490;1260;65066;-48
2023/12/13 01:05:35;;;;;;;2.20;2.00;;;;;;;13.68;51.44;97323.50;105768;1256;72477;-48
2023/12/13 01:08:02;;;;;;;2.30;2.10;;;;;;;13.68;51.49;97316.50;105609;1255;61243;-48
2023/12/13 01:10:30;;;;;;;2.30;2.00;;;;;;;13.68;51.44;97317.05;106116;1256;61395;-48
2023/12/13 01:12:57;;;;;;;2.20;2.00;;;;;;;13.68;51.34;97312.67;105213;1260;74443;-48
2023/12/13 01:15:24;;;;;;;2.10;1.90;;;;;;;13.69;51.43;97312.93;105415;1260;65855;-48
2023/12/13 01:17:52;;;;;;;2.00;1.80;;;;;;;13.69;51.39;97317.70;105544;1257;72556;-49
2023/12/13 01:20:19;;;;;;;2.00;1.80;;;;;;;13.69;51.38;97319.55;105490;1256;61276;-48
2023/12/13 01:22:46;;;;;;;2.20;1.90;;;;;;;13.69;51.40;97317.55;105663;1257;61368;-47
2023/12/13 01:25:14;;;;;;;2.30;2.10;;;;;;;13.69;51.41;97318.40;105587;1256;74325;-47
2023/12/13 01:27:41;;;;;;;2.30;1.90;;;;;;;13.69;51.50;97320.17;105681;1261;64778;-47
2023/12/13 01:30:09;;;;;;;2.20;1.70;;;;;;;13.70;51.53;97319.42;105655;1257;72581;-48
2023/12/13 01:32:36;;;;;;;2.20;2.00;;;;;;;13.69;51.34;97319.92;105821;1256;61290;-47
2023/12/13 01:35:05;;;;;;;2.20;2.00;;;;;;;13.69;51.34;97321.48;105083;1257;61292;-48
2023/12/13 01:37:32;;;;;;;2.20;2.00;;;;;;;13.70;51.33;97320.65;105432;1257;73391;-47
2023/12/13 01:40:00;;;;;;;2.50;2.30;;;;;;;13.69;51.32;97322.65;105513;1261;66270;-47
2023/12/13 01:42:27;;;;;;;2.20;1.90;;;;;;;13.70;51.50;97323.38;105761;1257;72784;-47
2023/12/13 01:44:55;;;;;;;2.10;1.90;;;;;;;13.70;51.43;97322.83;105462;1261;61304;-47
2023/12/13 01:47:22;;;;;;;2.90;2.10;;;;;;;13.71;51.43;97319.55;105549;1257;61336;-47
2023/12/13 01:49:49;;;;;;;2.30;1.80;;;;;;;13.71;51.34;97311.08;105090;1257;74667;-48
2023/12/13 01:52:17;;;;;;;2.00;1.80;;;;;;;13.71;51.39;97302.32;105237;1260;65525;-48
2023/12/13 01:54:44;;;;;;;2.00;1.80;;;;;;;13.71;51.32;97300.33;105067;1263;72585;-49
2023/12/13 01:57:14;;;;;;;2.00;1.80;;;;;;;13.71;51.37;97290.23;105181;1262;61236;-47
2023/12/13 01:59:41;;;;;;;2.00;1.90;;;;;;;13.71;51.31;97275.94;105187;1260;61212;-47
2023/12/13 02:02:10;;;;;;;2.60;1.90;;;;;;;13.71;51.38;97271.19;105729;1257;74386;-47
2023/12/13 02:04:37;;;;;;;2.40;1.80;;;;;;;13.71;51.32;97265.48;105681;1259;66432;-47
2023/12/13 02:07:05;;;;;;;3.30;1.90;;;;;;;13.71;51.30;97259.97;105271;1257;73069;-47
2023/12/13 02:09:32;;;;;;;2.30;2.10;;;;;;;13.71;51.45;97255.52;105360;1261;61244;-48
2023/12/13 02:12:00;;;;;;;3.60;2.00;;;;;;;13.72;51.42;97250.06;105331;1258;61455;-48
2023/12/13 02:14:28;;;;;;;2.20;2.00;;;;;;;13.71;51.28;97242.59;105522;1258;74571;-48
2023/12/13 02:16:55;;;;;;;2.90;2.10;;;;;;;13.71;51.30;97244.27;105643;1262;66675;-48
2023/12/13 02:19:22;;;;;;;2.40;2.00;;;;;;;13.71;51.22;97242.05;105263;1256;72420;-47
2023/12/13 02:21:49;;;;;;;2.40;2.20;;;;;;;13.72;51.44;97239.84;105127;1260;61175;-49
2023/12/13 02:24:18;;;;;;;3.70;1.90;;;;;;;13.72;51.31;97239.68;105209;1256;61258;-48
2023/12/13 02:26:45;;;;;;;2.20;1.70;;;;;;;13.72;51.29;97240.54;105076;1263;75564;-47
2023/12/13 02:29:13;;;;;;;1.80;1.70;;;;;;;13.72;51.24;97238.01;105211;1256;66344;-48
2023/12/13 02:31:41;;;;;;;2.40;1.90;;;;;;;13.72;51.34;97243.45;105649;1256;72583;-48
2023/12/13 02:34:08;;;;;;;1.70;1.60;;;;;;;13.72;51.33;97244.15;105266;1256;61341;-48
2023/12/13 02:36:36;;;;;;;2.00;1.80;;;;;;;13.72;51.42;97244.14;105541;1257;61340;-48
2023/12/13 02:39:04;;;;;;;2.30;2.00;;;;;;;13.73;51.20;97248.16;105545;1257;74573;-48
2023/12/13 02:41:32;;;;;;;2.00;1.80;;;;;;;13.73;51.26;97253.33;105272;1260;66082;-48
2023/12/13 02:44:00;;;;;;;2.50;2.10;;;;;;;13.73;51.24;97249.40;105124;1257;72608;-48
2023/12/13 02:46:28;;;;;;;2.00;1.80;;;;;;;13.73;51.30;97246.87;105107;1261;61297;-48
2023/12/13 02:48:59;;;;;;;1.70;1.60;;;;;;;13.73;51.30;97242.09;105576;1256;61412;-48
2023/12/13 02:51:26;;;;;;;3.10;1.90;;;;;;;13.73;51.25;97236.41;105250;1260;73394;-48
2023/12/13 02:53:54;;;;;;;2.30;2.10;;;;;;;13.73;51.32;97236.71;105484;1256;65125;-48
2023/12/13 02:56:21;;;;;;;2.30;1.70;;;;;;;13.73;51.30;97236.18;105189;1256;72295;-48
2023/12/13 02:58:48;;;;;;;2.30;2.00;;;;;;;13.73;51.35;97237.20;105298;1260;61248;-49
2023/12/13 03:01:16;;;;;;;2.10;1.80;;;;;;;13.73;51.19;97236.03;105330;1256;61436;-49
2023/12/13 03:03:43;;;;;;;2.20;1.90;;;;;;;13.73;51.33;97236.65;105528;1260;74497;-49
2023/12/13 03:06:10;;;;;;;2.10;1.90;;;;;;;13.73;51.22;97241.81;105505;1260;66061;-49
2023/12/13 03:08:38;;;;;;;2.80;1.90;;;;;;;13.73;51.25;97247.96;105590;1257;72658;-47
2023/12/13 03:11:05;;;;;;;1.60;1.50;;;;;;;13.73;51.27;97251.41;105600;1260;61226;-47
2023/12/13 03:13:34;;;;;;;2.20;1.70;;;;;;;13.73;51.19;97250.11;105537;1260;61152;-47
2023/12/13 03:16:01;;;;;;;2.30;2.00;;;;;;;13.74;51.23;97253.44;105604;1260;74491;-48
2023/12/13 03:18:28;;;;;;;1.90;1.80;;;;;;;13.73;51.23;97248.65;105211;1256;66902;-48
2023/12/13 03:20:56;;;;;;;2.80;2.00;;;;;;;13.74;51.28;97245.59;105454;1256;72369;-48
2023/12/13 03:23:24;;;;;;;2.20;1.70;;;;;;;13.73;51.17;97246.04;105414;1259;61262;-48
2023/12/13 03:25:51;;;;;;;2.10;1.90;;;;;;;13.74;51.17;97251.76;105411;1258;61250;-47
2023/12/13 03:28:18;;;;;;;2.50;1.80;;;;;;;13.74;51.24;97250.20;105504;1257;74628;-47
2023/12/13 03:30:45;;;;;;;2.20;2.00;;;;;;;13.75;51.15;97247.02;105734;1258;65422;-47
2023/12/13 03:33:13;;;;;;;2.40;2.20;;;;;;;13.74;51.15;97244.29;105565;1257;72406;-48
2023/12/13 03:35:40;;;;;;;1.80;1.60;;;;;;;13.74;51.34;97243.31;105849;1261;61341;-48
2023/12/13 03:38:08;;;;;;;2.30;2.00;;;;;;;13.74;51.24;97238.84;105578;1257;61347;-48
2023/12/13 03:40:35;;;;;;;1.90;1.70;;;;;;;13.75;51.11;97236.39;105996;1257;74584;-48
2023/12/13 03:43:03;;;;;;;1.90;1.70;;;;;;;13.74;51.24;97227.91;105334;1264;66096;-48
2023/12/13 03:45:30;;;;;;;2.00;1.90;;;;;;;13.74;51.17;97225.70;106131;1258;71393;-48
2023/12/13 03:47:57;;;;;;;2.10;1.90;;;;;;;13.75;51.19;97226.55;105329;1259;61349;-48
2023/12/13 03:50:25;;;;;;;2.20;1.90;;;;;;;13.75;51.34;97228.09;105180;1257;61212;-48
2023/12/13 03:52:52;;;;;;;2.30;1.70;;;;;;;13.75;51.22;97226.70;105242;1259;74374;-48
2023/12/13 03:55:20;;;;;;;2.00;1.80;;;;;;;13.76;51.21;97229.80;105450;1260;64929;-48
2023/12/13 03:57:47;;;;;;;2.10;1.90;;;;;;;13.76;51.30;97224.80;105346;1256;72395;-48
2023/12/13 04:00:16;;;;;;;2.30;1.90;;;;;;;13.76;51.26;97223.20;105429;1261;61262;-48
2023/12/13 04:02:43;;;;;;;1.70;1.60;;;;;;;13.75;51.15;97217.48;105596;1256;61277;-48
2023/12/13 04:05:10;;;;;;;2.10;1.90;;;;;;;13.76;51.15;97215.05;105366;1257;75120;-48
2023/12/13 04:07:37;;;;;;;1.80;1.60;;;;;;;13.76;51.14;97216.89;105464;1260;65405;-48
2023/12/13 04:10:05;;;;;;;2.00;1.80;;;;;;;13.75;51.17;97215.11;105728;1256;72494;-48
2023/12/13 04:12:33;;;;;;;2.40;1.80;;;;;;;13.75;51.26;97212.27;105585;1260;61365;-48
2023/12/13 04:15:00;;;;;;;2.30;1.80;;;;;;;13.76;51.17;97206.66;105400;1256;61252;-48
2023/12/13 04:17:27;;;;;;;2.20;1.80;;;;;;;13.76;51.18;97202.35;105476;1258;73622;-47
2023/12/13 04:19:57;;;;;;;2.30;1.90;;;;;;;13.76;51.19;97209.28;105588;1259;65485;-48
2023/12/13 04:22:24;;;;;;;2.10;1.90;;;;;;;13.75;51.07;97220.88;105600;1259;72501;-48
2023/12/13 04:24:52;;;;;;;1.90;1.70;;;;;;;13.75;51.19;97227.88;105507;1261;61266;-48
2023/12/13 04:27:19;;;;;;;2.40;1.70;;;;;;;13.77;51.13;97236.06;105561;1256;61423;-48
2023/12/13 04:29:46;;;;;;;2.00;1.80;;;;;;;13.76;51.27;97234.80;105476;1256;75230;-48
2023/12/13 04:32:13;;;;;;;2.70;2.00;;;;;;;13.76;51.10;97235.88;105272;1260;64859;-48
2023/12/13 04:34:41;;;;;;;1.80;1.50;;;;;;;13.75;51.04;97234.33;105408;1258;72379;-47
2023/12/13 04:37:08;;;;;;;2.20;1.80;;;;;;;13.75;51.18;97234.34;105319;1261;61233;-49
2023/12/13 04:39:35;;;;;;;1.90;1.70;;;;;;;13.75;51.05;97234.66;105016;1258;61351;-47
2023/12/13 04:42:05;;;;;;;2.20;1.90;;;;;;;13.76;51.08;97227.49;105172;1257;74386;-47
2023/12/13 04:44:33;;;;;;;1.80;1.70;;;;;;;13.76;51.14;97222.36;105717;1258;65522;-47
2023/12/13 04:47:00;;;;;;;1.90;1.50;;;;;;;13.76;51.00;97224.42;105555;1257;72622;-47
2023/12/13 04:49:31;;;;;;;2.10;1.80;;;;;;;13.76;51.22;97229.20;105463;1260;61230;-49
2023/12/13 04:51:58;;;;;;;2.10;1.90;;;;;;;13.76;51.06;97228.76;105501;1260;61361;-47
2023/12/13 04:54:25;;;;;;;1.80;1.50;;;;;;;13.76;51.10;97230.59;105634;1255;74353;-49
2023/12/13 04:56:53;;;;;;;2.10;1.80;;;;;;;13.76;51.14;97229.73;105199;1260;66091;-49
2023/12/13 04:59:20;;;;;;;1.90;1.70;;;;;;;13.76;51.08;97229.83;105665;1256;72612;-47
2023/12/13 05:01:48;;;;;;;1.80;1.60;;;;;;;13.76;51.12;97225.59;105527;1260;61259;-48
2023/12/13 05:04:15;;;;;;;1.90;1.70;;;;;;;13.76;51.16;97223.66;105528;1256;61854;-48
2023/12/13 05:06:42;;;;;;;1.60;1.50;;;;;;;13.76;51.07;97223.21;105524;1257;74693;-48
2023/12/13 05:09:10;;;;;;;1.70;1.40;;;;;;;13.76;51.15;97226.50;105532;1260;66195;-48
2023/12/13 05:11:37;;;;;;;2.00;1.60;;;;;;;13.76;51.17;97227.20;105448;1256;72704;-48
2023/12/13 05:14:04;;;;;;;2.10;1.60;;;;;;;13.76;51.03;97226.44;105576;1261;61251;-48
2023/12/13 05:16:32;;;;;;;1.70;1.60;;;;;;;13.76;51.18;97220.52;105635;1256;61288;-48
2023/12/13 05:19:00;;;;;;;2.10;1.70;;;;;;;13.76;51.21;97215.98;105618;1258;74465;-48
2023/12/13 05:21:28;;;;;;;2.00;1.80;;;;;;;13.76;50.94;97214.27;105604;1259;64892;-48
2023/12/13 05:23:55;;;;;;;2.00;1.70;;;;;;;13.77;50.97;97212.00;105580;1259;72499;-48
2023/12/13 05:26:22;;;;;;;1.60;1.50;;;;;;;13.77;51.08;97207.16;105238;1261;61253;-48
2023/12/13 05:28:50;;;;;;;1.80;1.60;;;;;;;13.76;51.08;97204.69;105169;1258;61235;-49
2023/12/13 05:31:19;;;;;;;1.90;1.80;;;;;;;13.76;51.16;97207.21;105413;1260;74802;-48
2023/12/13 05:33:47;;;;;;;1.80;1.70;;;;;;;13.76;51.08;97204.05;105330;1258;66046;-48
2023/12/13 05:36:14;;;;;;;1.80;1.70;;;;;;;13.76;51.11;97195.60;105604;1255;73160;-48
2023/12/13 05:38:42;;;;;;;2.20;1.70;;;;;;;13.76;51.06;97203.92;105322;1261;61345;-48
2023/12/13 05:41:09;;;;;;;1.80;1.70;;;;;;;13.76;51.18;97206.20;105190;1258;61325;-49
2023/12/13 05:43:36;;;;;;;1.90;1.70;;;;;;;13.76;51.09;97205.98;105485;1259;74547;-47
2023/12/13 05:46:05;;;;;;;1.90;1.60;;;;;;;13.76;51.05;97205.83;105575;1260;66239;-48
2023/12/13 05:48:32;;;;;;;1.90;1.80;;;;;;;13.76;51.05;97205.14;105283;1256;72497;-48
2023/12/13 05:51:00;;;;;;;1.90;1.70;;;;;;;13.77;51.11;97211.30;105683;1256;61432;-48
2023/12/13 05:53:28;;;;;;;3.00;2.00;;;;;;;13.76;51.08;97216.30;105549;1256;61284;-48
2023/12/13 05:55:55;;;;;;;2.40;1.70;;;;;;;13.76;51.10;97216.89;105745;1258;74613;-49
2023/12/13 05:58:23;;;;;;;2.00;1.70;;;;;;;13.76;51.09;97219.90;105227;1260;65060;-48
2023/12/13 06:00:50;;;;;;;2.00;1.80;;;;;;;13.76;51.14;97216.60;105210;1256;72359;-48
2023/12/13 06:03:17;;;;;;;2.20;1.70;;;;;;;13.76;51.09;97213.96;105295;1260;61243;-48
2023/12/13 06:05:45;;;;;;;2.40;2.10;;;;;;;13.76;50.92;97210.36;105256;1257;61801;-48
2023/12/13 06:08:12;;;;;;;2.10;1.80;;;;;;;13.76;50.95;97217.20;105385;1259;75171;-47
2023/12/13 06:10:40;;;;;;;2.40;1.70;;;;;;;13.76;51.02;97222.05;105505;1261;66167;-48
2023/12/13 06:13:07;;;;;;;2.00;1.80;;;;;;;13.76;50.89;97214.44;105387;1257;72325;-48
2023/12/13 06:15:36;;;;;;;2.40;2.00;;;;;;;13.76;51.05;97209.44;105329;1260;61148;-49
2023/12/13 06:18:04;;;;;;;1.60;1.50;;;;;;;13.76;51.05;97208.20;105130;1261;61159;-48
2023/12/13 06:20:32;;;;;;;2.30;1.80;;;;;;;13.76;51.11;97202.83;106072;1257;74703;-49
2023/12/13 06:22:59;;;;;;;2.80;2.10;;;;;;;13.76;51.11;97200.83;105277;1257;64964;-48
2023/12/13 06:25:26;;;;;;;2.20;1.90;;;;;;;13.76;51.14;97194.59;105125;1256;72668;-49
2023/12/13 06:27:54;;;;;;;2.80;2.20;;;;;;;13.76;51.16;97196.15;105250;1258;61211;-49
2023/12/13 06:30:21;;;;;;;3.00;2.20;;;;;;;13.76;51.10;97196.44;105305;1256;61389;-48
2023/12/13 06:32:49;;;;;;;2.30;2.10;;;;;;;13.76;51.12;97196.59;105324;1256;74923;-48
2023/12/13 06:35:16;;;;;;;2.40;2.10;;;;;;;13.75;51.01;97196.13;105609;1260;66456;-46
2023/12/13 06:37:43;;;;;;;2.30;2.10;;;;;;;13.75;51.14;97198.66;105144;1258;72583;-48
2023/12/13 06:40:14;;;;;;;2.90;2.50;;;;;;;13.76;51.14;97197.45;105386;1260;61259;-47
2023/12/13 06:42:42;;;;;;;3.10;2.40;;;;;;;13.76;51.31;97193.83;105406;1256;61261;-49
2023/12/13 06:45:09;;;;;;;3.70;2.40;;;;;;;13.76;51.16;97191.61;105279;1260;74531;-45
2023/12/13 06:47:36;;;;;;;2.90;2.60;;;;;;;13.76;51.20;97191.55;105080;1260;66396;-46
2023/12/13 06:50:05;;;;;;;5.70;3.00;;;;;;;13.77;51.22;97185.34;105149;1258;72981;-47
2023/12/13 06:52:32;;;;;;;3.20;2.70;;;;;;;13.77;51.22;97179.75;105233;1261;61318;-50
2023/12/13 06:55:00;;;;;;;3.90;2.80;;;;;;;13.77;51.36;97171.44;105359;1257;61161;-44
2023/12/13 06:57:27;;;;;;;4.10;3.00;;;;;;;13.77;51.50;97166.38;105321;1260;74739;-48
2023/12/13 06:59:54;;;;;;;4.10;2.90;;;;;;;13.79;51.59;97170.79;105537;1260;170154;-48
2023/12/13 07:02:22;;;;;;;5.40;2.90;;;;;;;13.80;51.80;97167.38;105923;1260;72691;-48
2023/12/13 07:04:49;;;;;;;3.30;2.70;;;;;;;13.81;51.69;97165.02;105312;1260;61366;-47
2023/12/13 07:07:17;;;;;;;3.60;2.50;;;;;;;13.82;51.68;97161.73;105373;1260;61166;-48
2023/12/13 07:09:45;;;;;;;4.00;2.80;;;;;;;13.81;51.63;97165.36;104983;1256;73308;-48
2023/12/13 07:12:12;;;;;;;4.50;2.70;;;;;;;13.82;51.68;97163.20;109090;1256;65482;-48
2023/12/13 07:14:39;;;;;;;3.50;2.70;;;;;;;13.82;51.55;97166.36;109098;1256;72649;-48
2023/12/13 07:17:07;;;;;;;3.70;2.90;;;;;;;13.83;51.67;97162.55;109131;1255;59085;-48
2023/12/13 07:19:34;;;;;;;3.90;2.70;;;;;;;13.84;51.57;97164.98;107195;1256;61215;-47
2023/12/13 07:22:02;;;;;;;2.90;2.40;;;;;;;13.85;51.53;97168.59;104908;1262;74612;-49
2023/12/13 07:24:30;;;;;;;3.60;2.90;;;;;;;13.86;51.65;97167.52;105242;1260;66146;-49
2023/12/13 07:26:57;;;;;;;3.30;2.80;;;;;;;13.88;51.69;97168.27;105455;1256;72579;-48
2023/12/13 07:29:24;;;;;;;3.60;2.70;;;;;;;13.89;51.92;97169.62;105232;1261;61183;-45
2023/12/13 07:31:53;;;;;;;5.30;3.00;;;;;;;13.90;51.71;97170.27;105219;1256;61240;-51
2023/12/13 07:34:20;;;;;;;2.90;2.50;;;;;;;13.90;51.77;97164.52;107984;1256;75030;-49
2023/12/13 07:36:49;;;;;;;3.40;2.70;;;;;;;13.90;51.70;97149.27;105253;1260;64945;-48
2023/12/13 07:39:16;;;;;;;3.10;2.60;;;;;;;13.91;51.63;97144.09;105285;1256;72554;-49
2023/12/13 07:41:44;;;;;;;2.90;2.60;;;;;;;13.91;51.57;97136.32;105070;1260;61261;-47
2023/12/13 07:44:11;;;;;;;4.00;2.70;;;;;;;13.91;51.66;97138.26;105327;1256;61223;-50
2023/12/13 07:46:38;;;;;;;5.20;2.80;;;;;;;13.92;51.56;97135.05;106918;1255;74712;-48
2023/12/13 07:49:06;;;;;;;5.20;2.70;;;;;;;13.92;51.54;97134.58;109098;1255;66280;-50
2023/12/13 07:51:33;;;;;;;4.00;2.90;;;;;;;13.92;51.46;97133.81;109112;1256;72404;-51
2023/12/13 07:54:01;;;;;;;3.50;2.80;;;;;;;13.93;51.48;97134.61;109091;1257;59102;-50
2023/12/13 07:56:30;;;;;;;3.00;2.70;;;;;;;13.94;51.32;97134.81;109118;1256;58932;-49
2023/12/13 07:58:58;;;;;;;3.50;3.10;;;;;;;13.95;51.47;97133.30;109067;1256;74517;-48
2023/12/13 08:01:27;;;;;;;3.50;3.10;;;;;;;13.97;51.56;97129.36;108120;1255;65179;-46
2023/12/13 08:03:56;;;;;;;4.90;3.40;;;;;;;14.01;51.36;97129.57;105309;1256;72160;-48
2023/12/13 08:06:23;;;;;;;5.70;3.70;;;;;;;14.04;51.20;97126.09;104857;1256;61357;-48
2023/12/13 08:08:51;;;;;;;4.40;3.60;;;;;;;14.07;51.10;97122.73;105336;1258;61349;-49
2023/12/13 08:11:19;;;;;;;6.70;3.80;;;;;;;14.10;51.03;97118.52;105336;1261;74613;-48
2023/12/13 08:13:46;;;;;;;6.60;4.00;;;;;;;14.12;50.95;97114.91;105236;1262;66209;-45
2023/12/13 08:16:14;;;;;;;8.00;4.10;;;;;;;14.15;50.94;97113.52;105222;1258;73459;-47
2023/12/13 08:18:41;;;;;;;5.30;3.80;;;;;;;14.16;51.21;97115.33;105347;1261;61432;-48
2023/12/13 08:21:09;;;;;;;6.30;4.10;;;;;;;14.17;51.50;97113.99;105298;1258;61261;-47
2023/12/13 08:23:36;;;;;;;6.80;3.90;;;;;;;14.18;51.77;97109.33;105193;1261;75110;-51
2023/12/13 08:26:04;;;;;;;4.60;3.60;;;;;;;14.19;51.91;97106.98;105174;1260;66073;-52
2023/12/13 08:28:32;;;;;;;6.50;3.50;;;;;;;14.20;52.08;97104.94;105666;1259;73195;-48
2023/12/13 08:30:59;;;;;;;12.90;3.90;;;;;;;14.22;52.13;97098.99;105307;1261;61312;-49
2023/12/13 08:33:43;;;;;;;7.20;3.90;;;;;;;14.23;52.30;97102.20;105079;1256;61249;-50
2023/12/13 08:36:11;;;;;;;5.20;3.90;;;;;;;14.24;52.29;97097.77;105268;1259;73756;-50
2023/12/13 08:38:39;;;;;;;5.10;3.50;;;;;;;14.25;52.38;97095.92;105196;1260;65480;-50
2023/12/13 08:41:08;;;;;;;4.70;3.70;;;;;;;14.25;52.33;97096.56;105091;1256;73590;-50
2023/12/13 08:43:35;;;;;;;9.40;3.40;;;;;;;14.26;52.48;97097.23;105235;1259;61263;-51
2023/12/13 08:46:03;;;;;;;5.00;3.60;;;;;;;14.27;52.57;97100.55;108175;1257;59366;-49
2023/12/13 08:48:30;;;;;;;15.40;4.40;;;;;;;14.28;52.68;97099.48;107017;1255;74824;-49
2023/12/13 08:50:58;;;;;;;13.20;4.50;;;;;;;14.29;52.93;97094.92;107202;1259;66901;-51
2023/12/13 08:53:25;;;;;;;13.10;4.70;;;;;;;14.30;53.09;97081.27;105255;1259;72425;-50
2023/12/13 08:55:53;;;;;;;12.10;4.90;;;;;;;14.30;53.44;97071.83;105074;1261;61257;-50
2023/12/13 08:58:20;;;;;;;15.50;5.00;;;;;;;14.30;53.50;97067.89;104956;1256;61252;-51
2023/12/13 09:00:48;;;;;;;9.60;4.70;;;;;;;14.31;53.36;97067.92;109021;1256;74691;-52
2023/12/13 09:03:15;;;;;;;15.20;4.80;;;;;;;14.30;53.46;97070.36;109081;1256;64804;-52
2023/12/13 09:05:43;;;;;;;12.90;4.80;;;;;;;14.31;53.47;97069.01;109022;1256;71421;-52
2023/12/13 09:08:10;;;;;;;9.00;4.00;;;;;;;14.31;53.44;97060.84;108895;1256;60086;-52
2023/12/13 09:11:18;;;;;;;13.80;4.50;;;;;;;14.32;53.30;97048.71;105057;1256;61259;-50
2023/12/13 09:13:45;;;;;;;9.90;4.50;;;;;;;14.32;53.43;97051.94;105274;1256;74228;-50
2023/12/13 09:16:13;;;;;;;11.70;4.50;;;;;;;14.32;53.32;97058.01;105342;1260;65282;-47
2023/12/13 09:18:43;;;;;;;9.10;4.20;;;;;;;14.31;53.23;97056.70;109010;1256;72572;-48
2023/12/13 09:21:11;;;;;;;6.50;4.00;;;;;;;14.32;53.30;97063.78;109062;1256;59239;-47
2023/12/13 09:23:40;;;;;;;11.60;4.50;;;;;;;14.33;53.30;97060.30;108051;1256;59999;-52
2023/12/13 09:26:13;;;;;;;12.80;4.50;;;;;;;14.34;53.50;97050.94;109064;1256;73467;-50
2023/12/13 09:28:41;;;;;;;7.50;4.50;;;;;;;14.36;53.56;97044.77;105685;1256;67700;-51
2023/12/13 09:31:11;;;;;;;12.90;4.70;;;;;;;14.37;53.53;97035.40;105669;1256;72159;-49
2023/12/13 09:33:40;;;;;;;10.40;4.70;;;;;;;14.38;53.42;97027.42;109108;1256;61060;-50
2023/12/13 09:36:08;;;;;;;10.80;4.40;;;;;;;14.38;53.41;97029.07;105921;1256;61334;-51
2023/12/13 09:38:36;;;;;;;9.90;4.30;;;;;;;14.38;53.60;97029.77;108954;1256;74283;-50
2023/12/13 09:41:05;;;;;;;9.60;4.70;;;;;;;14.38;53.60;97028.97;106867;1256;67820;-50
2023/12/13 09:43:32;;;;;;;13.90;4.50;;;;;;;14.38;53.41;97026.13;105147;1256;73419;-50
2023/12/13 09:46:05;;;;;;;7.40;4.20;;;;;;;14.37;53.36;97028.56;105159;1263;61368;-50
2023/12/13 09:48:34;;;;;;;11.30;4.10;;;;;;;14.37;53.32;97029.88;105123;1261;61496;-50
2023/12/13 09:51:05;;;;;;;8.50;4.50;;;;;;;14.36;53.27;97027.23;105176;1262;75416;-49
2023/12/13 09:53:33;;;;;;;13.10;4.30;;;;;;;14.35;53.39;97022.11;105074;1264;66466;-53
2023/12/13 09:56:02;;;;;;;8.40;4.40;;;;;;;14.34;53.38;97017.02;105094;1259;72533;-53
2023/12/13 09:58:30;;;;;;;7.50;4.50;;;;;;;14.33;53.73;97014.96;105182;1261;61345;-53
2023/12/13 10:00:59;;;;;;;8.40;4.70;;;;;;;14.32;53.81;97016.91;105238;1256;61290;-48
2023/12/13 10:03:28;;;;;;;7.40;4.80;;;;;;;14.31;54.06;97013.73;105218;1261;75426;-49
2023/12/13 10:05:56;;;;;;;10.00;4.90;;;;;;;14.29;54.10;97005.88;105109;1264;65811;-48
2023/12/13 10:08:24;;;;;;;11.50;4.70;;;;;;;14.27;54.16;97005.60;105139;1257;73546;-51
2023/12/13 10:10:52;;;;;;;9.90;5.30;;;;;;;14.27;54.34;97007.81;105136;1263;61316;-48
2023/12/13 10:13:21;;;;;;;8.20;4.50;;;;;;;14.25;54.39;97008.52;105049;1265;61287;-50
2023/12/13 10:15:51;;;;;;;8.90;4.90;;;;;;;14.24;54.37;97011.95;105313;1259;73921;-50
2023/12/13 10:18:21;;;;;;;10.40;4.70;;;;;;;14.23;54.40;97008.60;105025;1260;64965;-47
2023/12/13 10:20:54;;;;;;;12.70;5.10;;;;;;;14.22;54.38;97004.04;104928;1264;72264;-53
2023/12/13 10:23:22;;;;;;;7.50;4.80;;;;;;;14.21;54.67;96995.39;105085;1259;61281;-52
2023/12/13 10:25:51;;;;;;;9.20;5.00;;;;;;;14.20;54.63;96994.76;105197;1256;61456;-52
2023/12/13 10:28:20;;;;;;;9.90;4.70;;;;;;;14.18;54.82;96997.92;108889;1257;75661;-51
2023/12/13 10:30:51;;;;;;;8.20;4.80;;;;;;;14.18;54.78;97000.13;108817;1257;66128;-51
2023/12/13 10:33:19;;;;;;;7.30;4.80;;;;;;;14.16;54.76;96997.86;109071;1256;72927;-51
2023/12/13 10:35:47;;;;;;;9.20;5.00;;;;;;;14.15;54.77;96991.98;109029;1259;59577;-51
2023/12/13 10:38:14;;;;;;;6.90;4.90;;;;;;;14.16;54.66;96991.91;109042;1259;59121;-51
2023/12/13 10:40:42;;;;;;;8.70;4.80;;;;;;;14.16;54.64;96991.69;108908;1257;74422;-52
2023/12/13 10:43:11;;;;;;;8.70;4.70;;;;;;;14.16;54.58;96988.02;105203;1264;67363;-49
2023/12/13 10:45:40;;;;;;;10.00;5.10;;;;;;;14.17;54.57;96982.73;105600;1256;72643;-53
2023/12/13 10:48:08;;;;;;;12.00;5.50;;;;;;;14.17;54.53;96975.90;105432;1261;61363;-48
2023/12/13 10:50:35;;;;;;;12.00;4.60;;;;;;;14.17;54.64;96972.19;105655;1259;61127;-47
2023/12/13 10:53:02;;;;;;;9.30;5.20;;;;;;;14.17;54.67;96971.19;105108;1256;73365;-54
2023/12/13 10:55:29;;;;;;;10.30;5.20;;;;;;;14.16;54.72;96964.25;105961;1261;65231;-54
2023/12/13 10:57:57;;;;;;;7.10;4.90;;;;;;;14.17;54.63;96958.19;105023;1256;72601;-53
2023/12/13 11:00:27;;;;;;;8.30;4.70;;;;;;;14.18;54.61;96950.58;105023;1262;61233;-49
2023/12/13 11:03:06;;;;;;;11.00;5.50;;;;;;;14.16;54.89;96941.98;104907;1256;61258;-52
2023/12/13 11:05:33;;;;;;;8.90;5.10;;;;;;;14.15;54.98;96935.45;104823;1257;75548;-52
2023/12/13 11:08:01;;;;;;;9.50;5.00;;;;;;;14.15;55.01;96932.19;104854;1256;66109;-52
2023/12/13 11:10:28;;;;;;;8.00;4.50;;;;;;;14.14;55.03;96926.86;105872;1260;72616;-52
2023/12/13 11:12:56;;;;;;;7.20;4.70;;;;;;;14.14;54.84;96922.23;105401;1261;61267;-52
2023/12/13 11:15:23;;;;;;;9.40;5.00;;;;;;;14.14;54.89;96918.85;105246;1256;61289;-51
2023/12/13 11:17:54;;;;;;;6.60;4.70;;;;;;;14.14;54.89;96918.85;105442;1260;74569;-52
2023/12/13 11:20:22;;;;;;;7.70;4.20;;;;;;;14.13;54.79;96919.29;105464;1261;64698;-52
2023/12/13 11:22:49;;;;;;;6.60;4.60;;;;;;;14.13;54.81;96916.20;105179;1257;72333;-52
2023/12/13 11:25:17;;;;;;;7.10;4.40;;;;;;;14.12;54.79;96914.26;105318;1262;61352;-52
2023/12/13 11:27:51;;;;;;;8.00;4.60;;;;;;;14.12;54.62;96909.41;105230;1262;61247;-55